createdAt,value
2023-02-05T00:00:02.741Z,7.05
2023-02-05T00:02:29.254Z,8.73
2023-02-05T00:04:55.713Z,9.70
2023-02-05T00:07:22.273Z,6.82
2023-02-05T00:09:48.823Z,13.05
2023-02-05T00:12:15.345Z,10.45
2023-02-05T00:14:41.802Z,10.32
2023-02-05T00:17:08.321Z,7.70
2023-02-05T00:19:34.810Z,12.13
2023-02-05T00:22:01.284Z,10.38
2023-02-05T00:24:27.767Z,21.05
2023-02-05T00:26:54.232Z,8.00
2023-02-05T00:29:20.698Z,10.68
2023-02-05T00:31:49.580Z,7.38
2023-02-05T00:34:16.578Z,11.55
2023-02-05T00:36:43.049Z,9.00
2023-02-05T00:39:11.604Z,10.60
2023-02-05T00:41:38.388Z,14.70
2023-02-05T00:44:05.174Z,10.82
2023-02-05T00:46:31.760Z,11.07
2023-02-05T00:48:58.453Z,8.50
2023-02-05T00:51:24.949Z,12.35
2023-02-05T00:53:51.507Z,10.73
2023-02-05T00:56:17.993Z,7.50
2023-02-05T00:58:47.742Z,6.72
2023-02-05T01:01:14.991Z,11.27
2023-02-05T01:03:41.773Z,4.97
2023-02-05T01:06:08.423Z,5.15
2023-02-05T01:08:34.970Z,10.82
2023-02-05T01:11:01.499Z,7.43
2023-02-05T01:13:27.993Z,10.98
2023-02-05T01:15:54.589Z,7.13
2023-02-05T01:18:21.102Z,7.15
2023-02-05T01:20:47.586Z,7.85
2023-02-05T01:23:14.108Z,5.35
2023-02-05T01:25:40.594Z,4.50
2023-02-05T01:28:07.145Z,6.53
2023-02-05T01:30:34.239Z,9.20
2023-02-05T01:33:00.924Z,7.28
2023-02-05T01:35:27.512Z,5.20
2023-02-05T01:37:54.071Z,7.50
2023-02-05T01:40:20.732Z,7.38
2023-02-05T01:42:47.250Z,7.63
2023-02-05T01:45:22.976Z,6.22
2023-02-05T01:48:01.310Z,9.00
2023-02-05T01:50:42.645Z,5.05
2023-02-05T01:53:10.897Z,7.80
2023-02-05T01:56:01.651Z,7.55
2023-02-05T01:58:30.802Z,7.00
2023-02-05T02:00:57.325Z,7.38
2023-02-05T02:03:23.969Z,6.20
2023-02-05T02:05:50.435Z,9.13
2023-02-05T02:08:16.850Z,6.28
2023-02-05T02:10:43.499Z,11.82
2023-02-05T02:13:10.876Z,5.80
2023-02-05T02:15:37.349Z,11.43
2023-02-05T02:18:22.909Z,5.35
2023-02-05T02:20:52.511Z,7.07
2023-02-05T02:23:22.460Z,6.05
2023-02-05T02:26:11.628Z,11.25
2023-02-05T02:28:50.373Z,6.05
2023-02-05T02:31:33.132Z,8.40
2023-02-05T02:34:02.936Z,7.55
2023-02-05T02:36:37.472Z,5.93
2023-02-05T02:39:10.620Z,7.43
2023-02-05T02:42:02.420Z,6.82
2023-02-05T02:44:40.643Z,8.45
2023-02-05T02:47:12.009Z,7.45
2023-02-05T02:49:44.677Z,7.53
2023-02-05T02:52:11.747Z,4.90
2023-02-05T02:54:38.250Z,7.82
2023-02-05T02:57:05.266Z,6.05
2023-02-05T02:59:32.786Z,11.15
2023-02-05T03:02:00.201Z,7.88
2023-02-05T03:04:39.457Z,7.50
2023-02-05T03:07:10.262Z,7.75
2023-02-05T03:09:43.968Z,7.30
2023-02-05T03:12:10.572Z,11.60
2023-02-05T03:14:37.105Z,7.70
2023-02-05T03:17:03.909Z,11.23
2023-02-05T03:19:30.457Z,11.77
2023-02-05T03:21:59.427Z,6.38
2023-02-05T03:24:25.931Z,6.55
2023-02-05T03:26:52.485Z,8.48
2023-02-05T03:29:25.758Z,6.88
2023-02-05T03:32:15.405Z,5.57
2023-02-05T03:34:57.073Z,5.90
2023-02-05T03:37:48.546Z,9.90
2023-02-05T03:40:39.185Z,5.90
2023-02-05T03:43:14.339Z,6.78
2023-02-05T03:46:02.925Z,7.28
2023-02-05T03:48:39.981Z,6.90
2023-02-05T03:51:27.958Z,8.05
2023-02-05T03:54:09.792Z,5.45
2023-02-05T03:56:48.586Z,10.00
2023-02-05T03:59:16.274Z,5.47
2023-02-05T04:01:44.556Z,5.40
2023-02-05T04:04:11.432Z,8.27
2023-02-05T04:06:38.014Z,7.45
2023-02-05T04:09:04.469Z,5.07
2023-02-05T04:11:32.946Z,7.80
2023-02-05T04:13:59.579Z,6.95
2023-02-05T04:16:26.168Z,6.25
2023-02-05T04:18:52.718Z,6.25
2023-02-05T04:21:19.192Z,6.28
2023-02-05T04:23:45.769Z,4.32
2023-02-05T04:26:12.462Z,5.13
2023-02-05T04:28:38.935Z,4.63
2023-02-05T04:31:09.181Z,8.27
2023-02-05T04:33:35.672Z,5.63
2023-02-05T04:36:02.199Z,8.93
2023-02-05T04:38:28.679Z,4.88
2023-02-05T04:40:55.757Z,9.05
2023-02-05T04:43:22.350Z,9.95
2023-02-05T04:45:48.924Z,8.85
2023-02-05T04:48:15.454Z,10.63
2023-02-05T04:50:41.952Z,7.03
2023-02-05T04:53:08.460Z,6.68
2023-02-05T04:55:35.234Z,6.88
2023-02-05T04:58:01.863Z,10.20
2023-02-05T05:00:28.412Z,7.72
2023-02-05T05:02:54.943Z,5.22
2023-02-05T05:05:21.417Z,4.60
2023-02-05T05:07:48.766Z,5.13
2023-02-05T05:10:15.440Z,5.20
2023-02-05T05:12:41.913Z,6.70
2023-02-05T05:15:08.622Z,5.85
2023-02-05T05:17:35.252Z,6.15
2023-02-05T05:20:01.835Z,9.73
2023-02-05T05:22:28.300Z,8.73
2023-02-05T05:24:54.816Z,4.63
2023-02-05T05:27:23.078Z,5.95
2023-02-05T05:29:49.651Z,5.22
2023-02-05T05:32:16.249Z,4.97
2023-02-05T05:34:42.742Z,6.20
2023-02-05T05:37:09.263Z,8.75
2023-02-05T05:39:54.455Z,4.32
2023-02-05T05:42:39.531Z,7.38
2023-02-05T05:45:07.630Z,9.15
2023-02-05T05:47:34.133Z,6.75
2023-02-05T05:50:00.633Z,5.32
2023-02-05T05:52:27.108Z,4.85
2023-02-05T05:54:54.460Z,4.88
2023-02-05T05:57:21.152Z,4.20
2023-02-05T05:59:47.912Z,5.80
2023-02-05T06:02:14.424Z,6.60
2023-02-05T06:04:40.995Z,5.30
2023-02-05T06:07:07.509Z,6.68
2023-02-05T06:09:34.049Z,4.35
2023-02-05T06:12:00.558Z,5.20
2023-02-05T06:14:27.066Z,7.05
2023-02-05T06:16:55.742Z,6.05
2023-02-05T06:19:22.807Z,5.97
2023-02-05T06:21:49.356Z,10.38
2023-02-05T06:24:15.823Z,5.95
2023-02-05T06:26:42.302Z,7.22
2023-02-05T06:29:08.856Z,11.77
2023-02-05T06:31:35.470Z,12.18
2023-02-05T06:34:02.078Z,10.65
2023-02-05T06:36:28.577Z,12.45
2023-02-05T06:38:55.074Z,10.77
2023-02-05T06:41:21.545Z,9.43
2023-02-05T06:43:48.336Z,9.70
2023-02-05T06:46:14.896Z,7.68
2023-02-05T06:48:41.427Z,8.35
2023-02-05T06:51:08.432Z,10.57
2023-02-05T06:53:34.946Z,7.22
2023-02-05T06:56:01.457Z,12.60
2023-02-05T06:58:28.014Z,11.02
2023-02-05T07:00:54.521Z,13.10
2023-02-05T07:03:21.003Z,8.00
2023-02-05T07:05:48.222Z,10.85
2023-02-05T07:08:14.687Z,9.80
2023-02-05T07:10:41.205Z,12.98
2023-02-05T07:13:07.723Z,10.10
2023-02-05T07:15:37.479Z,7.50
2023-02-05T07:18:04.952Z,6.18
2023-02-05T07:20:31.672Z,8.38
2023-02-05T07:22:58.193Z,5.03
2023-02-05T07:25:24.652Z,7.95
2023-02-05T07:27:51.215Z,5.30
2023-02-05T07:30:17.988Z,8.85
2023-02-05T07:32:44.476Z,10.75
2023-02-05T07:35:11.003Z,21.15
2023-02-05T07:37:39.308Z,10.85
2023-02-05T07:40:06.308Z,10.63
2023-02-05T07:42:32.860Z,10.80
2023-02-05T07:44:59.357Z,10.93
2023-02-05T07:47:25.838Z,9.30
2023-02-05T07:49:52.365Z,10.00
2023-02-05T07:52:18.874Z,4.50
2023-02-05T07:54:45.323Z,8.15
2023-02-05T07:57:11.856Z,6.43
2023-02-05T07:59:38.329Z,4.32
2023-02-05T08:02:04.815Z,4.88
2023-02-05T08:04:31.537Z,4.90
2023-02-05T08:06:58.056Z,8.80
2023-02-05T08:09:24.639Z,23.45
2023-02-05T08:11:51.238Z,5.82
2023-02-05T08:14:17.717Z,7.05
2023-02-05T08:16:44.182Z,7.18
2023-02-05T08:19:14.548Z,6.32
2023-02-05T08:21:41.097Z,6.28
2023-02-05T08:24:07.583Z,8.43
2023-02-05T08:26:34.164Z,6.47
2023-02-05T08:29:00.835Z,9.57
2023-02-05T08:31:27.378Z,6.85
2023-02-05T08:33:56.228Z,8.32
2023-02-05T08:36:22.674Z,8.50
2023-02-05T08:38:49.554Z,6.07
2023-02-05T08:41:16.077Z,6.85
2023-02-05T08:43:46.991Z,5.65
2023-02-05T08:46:14.397Z,5.18
2023-02-05T08:48:41.078Z,8.02
2023-02-05T08:51:09.734Z,6.68
2023-02-05T08:53:36.203Z,5.95
2023-02-05T08:56:03.557Z,7.75
2023-02-05T08:58:30.041Z,7.80
2023-02-05T09:01:01.281Z,4.45
2023-02-05T09:03:27.834Z,5.68
2023-02-05T09:05:54.307Z,12.80
2023-02-05T09:08:20.858Z,4.75
2023-02-05T09:10:47.886Z,5.07
2023-02-05T09:13:14.358Z,6.22
2023-02-05T09:15:42.709Z,5.85
2023-02-05T09:18:09.268Z,5.18
2023-02-05T09:20:35.782Z,7.78
2023-02-05T09:23:02.267Z,7.63
2023-02-05T09:25:30.052Z,6.05
2023-02-05T09:27:56.666Z,6.82
2023-02-05T09:30:23.186Z,5.25
2023-02-05T09:32:49.744Z,5.65
2023-02-05T09:35:16.235Z,7.82
2023-02-05T09:37:43.982Z,8.98
2023-02-05T09:40:21.951Z,5.53
2023-02-05T09:42:48.525Z,4.60
2023-02-05T09:45:35.663Z,4.80
2023-02-05T09:48:14.142Z,5.10
2023-02-05T09:50:41.414Z,5.38
2023-02-05T09:53:11.927Z,6.13
2023-02-05T09:55:40.230Z,5.55
2023-02-05T09:58:21.748Z,6.35
2023-02-05T10:00:59.330Z,5.53
2023-02-05T10:03:32.281Z,5.47
2023-02-05T10:06:13.744Z,8.60
2023-02-05T10:08:58.818Z,5.97
2023-02-05T10:11:31.762Z,5.18
2023-02-05T10:14:26.519Z,6.97
2023-02-05T10:16:56.002Z,3.95
2023-02-05T10:19:37.722Z,5.28
2023-02-05T10:22:53.625Z,7.72
2023-02-05T10:25:30.054Z,4.00
2023-02-05T10:28:29.072Z,4.38
2023-02-05T10:31:02.933Z,4.00
2023-02-05T10:33:44.949Z,4.72
2023-02-05T10:36:11.486Z,5.20
2023-02-05T10:38:44.916Z,4.55
2023-02-05T10:41:17.153Z,5.70
2023-02-05T10:44:14.920Z,4.45
2023-02-05T10:46:41.474Z,4.75
2023-02-05T10:49:51.852Z,6.25
2023-02-05T10:52:18.398Z,3.95
2023-02-05T10:54:45.400Z,3.28
2023-02-05T10:57:16.814Z,6.22
2023-02-05T10:59:49.714Z,4.13
2023-02-05T11:04:45.534Z,5.75
2023-02-05T11:07:13.749Z,4.57
2023-02-05T11:09:40.351Z,3.70
2023-02-05T11:12:19.938Z,5.03
2023-02-05T11:14:46.720Z,5.63
2023-02-05T11:17:22.006Z,5.65
2023-02-05T11:20:01.665Z,3.85
2023-02-05T11:22:36.325Z,4.20
2023-02-05T11:25:16.723Z,8.77
2023-02-05T11:27:56.743Z,4.10
2023-02-05T11:30:51.132Z,6.03
2023-02-05T11:33:25.473Z,8.95
2023-02-05T11:35:55.372Z,6.22
2023-02-05T11:38:29.832Z,5.47
2023-02-05T11:40:58.389Z,6.47
2023-02-05T11:43:40.879Z,5.20
2023-02-05T11:46:08.699Z,3.45
2023-02-05T11:48:39.898Z,7.80
2023-02-05T11:51:08.280Z,3.60
2023-02-05T11:53:34.992Z,2.70
2023-02-05T11:56:04.932Z,3.45
2023-02-05T11:58:37.043Z,4.97
2023-02-05T12:01:06.947Z,3.17
2023-02-05T12:03:34.073Z,2.92
2023-02-05T12:06:05.974Z,4.20
2023-02-05T12:08:36.784Z,3.27
2023-02-05T12:11:12.078Z,4.18
2023-02-05T12:13:56.543Z,3.63
2023-02-05T12:16:46.393Z,6.00
2023-02-05T12:19:20.537Z,7.03
2023-02-05T12:21:51.383Z,5.10
2023-02-05T12:24:49.023Z,5.60
2023-02-05T12:27:40.301Z,5.35
2023-02-05T12:30:19.380Z,4.57
2023-02-05T12:33:07.089Z,6.05
2023-02-05T12:36:12.034Z,6.00
2023-02-05T12:38:49.878Z,3.80
2023-02-05T12:41:28.981Z,4.38
2023-02-05T12:44:02.793Z,5.72
2023-02-05T12:47:02.844Z,3.72
2023-02-05T12:49:44.059Z,3.30
2023-02-05T12:52:18.493Z,4.80
2023-02-05T12:55:03.899Z,3.40
2023-02-05T12:57:44.722Z,6.20
2023-02-05T13:00:19.568Z,3.45
2023-02-05T13:03:08.025Z,4.05
2023-02-05T13:05:37.249Z,3.22
2023-02-05T13:08:26.979Z,4.43
2023-02-05T13:10:58.654Z,4.88
2023-02-05T13:13:27.424Z,3.45
2023-02-05T13:16:01.234Z,3.45
2023-02-05T13:18:29.837Z,4.80
2023-02-05T13:21:25.683Z,6.15
2023-02-05T13:24:23.671Z,9.70
2023-02-05T13:27:08.383Z,3.88
2023-02-05T13:29:44.120Z,3.53
2023-02-05T13:32:15.986Z,6.95
2023-02-05T13:34:42.840Z,3.90
2023-02-05T13:37:25.993Z,4.47
2023-02-05T13:40:29.900Z,5.13
2023-02-05T13:43:21.869Z,7.97
2023-02-05T13:46:29.506Z,3.95
2023-02-05T13:49:18.084Z,6.18
2023-02-05T13:52:10.049Z,4.00
2023-02-05T13:54:58.329Z,3.03
2023-02-05T13:57:46.302Z,3.30
2023-02-05T14:00:13.388Z,5.03
2023-02-05T14:02:49.393Z,4.45
2023-02-05T14:05:16.403Z,5.70
2023-02-05T14:07:49.727Z,3.35
2023-02-05T14:10:27.827Z,5.35
2023-02-05T14:13:07.963Z,3.67
2023-02-05T14:15:41.877Z,2.95
2023-02-05T14:18:11.091Z,3.38
2023-02-05T14:20:39.221Z,4.75
2023-02-05T14:23:13.219Z,5.60
2023-02-05T14:25:39.605Z,4.95
2023-02-05T14:28:08.815Z,3.35
2023-02-05T14:30:57.733Z,3.40
2023-02-05T14:33:43.583Z,6.65
2023-02-05T14:36:16.098Z,3.72
2023-02-05T14:38:46.355Z,3.17
2023-02-05T14:41:14.572Z,3.75
2023-02-05T14:43:41.943Z,3.53
2023-02-05T14:46:45.326Z,4.65
2023-02-05T14:49:23.269Z,4.07
2023-02-05T14:51:59.167Z,3.17
2023-02-05T14:54:30.157Z,5.47
2023-02-05T14:57:14.847Z,4.20
2023-02-05T14:59:51.597Z,3.80
2023-02-05T15:02:48.953Z,4.72
2023-02-05T15:05:44.654Z,4.57
2023-02-05T15:08:29.769Z,4.43
2023-02-05T15:10:56.175Z,3.50
2023-02-05T15:13:22.913Z,3.70
2023-02-05T15:16:11.419Z,3.42
2023-02-05T15:18:41.415Z,6.72
2023-02-05T15:21:20.732Z,3.30
2023-02-05T15:23:50.698Z,3.30
2023-02-05T15:26:34.009Z,7.50
2023-02-05T15:29:06.908Z,3.35
2023-02-05T15:34:48.549Z,3.30
2023-02-05T15:37:19.766Z,5.57
2023-02-05T15:39:52.363Z,20.75
2023-02-05T15:42:21.062Z,5.30
2023-02-05T15:44:47.570Z,5.45
2023-02-05T15:47:18.794Z,3.30
2023-02-05T15:49:47.016Z,7.18
2023-02-05T15:52:23.662Z,3.33
2023-02-05T15:54:50.488Z,5.63
2023-02-05T15:57:24.905Z,3.20
2023-02-05T15:59:54.591Z,4.75
2023-02-05T16:02:22.753Z,2.90
2023-02-05T16:05:09.719Z,3.55
2023-02-05T16:07:40.317Z,3.65
2023-02-05T16:10:30.580Z,2.83
2023-02-05T16:13:17.258Z,6.60
2023-02-05T16:15:46.709Z,3.60
2023-02-05T16:18:47.259Z,3.38
2023-02-05T16:21:28.220Z,3.35
2023-02-05T16:24:00.062Z,5.70
2023-02-05T16:26:29.402Z,5.35
2023-02-05T16:28:58.061Z,4.40
2023-02-05T16:31:25.523Z,5.60
2023-02-05T16:33:56.652Z,5.18
2023-02-05T16:36:35.100Z,3.83
2023-02-05T16:39:07.242Z,6.55
2023-02-05T16:41:40.318Z,4.72
2023-02-05T16:44:07.483Z,4.70
2023-02-05T16:46:35.147Z,5.50
2023-02-05T16:49:02.422Z,5.18
2023-02-05T16:51:41.283Z,9.80
2023-02-05T16:54:10.684Z,5.72
2023-02-05T16:57:00.925Z,4.97
2023-02-05T16:59:33.482Z,5.82
2023-02-05T17:02:00.019Z,7.95
2023-02-05T17:04:37.024Z,7.32
2023-02-05T17:07:04.825Z,6.85
2023-02-05T17:09:36.229Z,6.75
2023-02-05T17:12:21.589Z,6.78
2023-02-05T17:15:26.214Z,7.18
2023-02-05T17:17:57.292Z,10.10
2023-02-05T17:20:24.478Z,9.57
2023-02-05T17:23:05.746Z,6.65
2023-02-05T17:25:35.946Z,7.88
2023-02-05T17:28:03.337Z,7.97
2023-02-05T17:30:30.009Z,6.45
2023-02-05T17:32:56.467Z,8.55
2023-02-05T17:35:24.568Z,14.18
2023-02-05T17:37:52.520Z,9.35
2023-02-05T17:40:19.497Z,10.30
2023-02-05T17:42:46.758Z,10.88
2023-02-05T17:45:16.557Z,7.38
2023-02-05T17:47:43.300Z,8.52
2023-02-05T17:50:10.480Z,7.28
2023-02-05T17:52:37.002Z,12.90
2023-02-05T17:55:04.203Z,16.25
2023-02-05T17:57:33.885Z,11.98
2023-02-05T18:00:00.669Z,10.63
2023-02-05T18:02:27.160Z,11.88
2023-02-05T18:04:53.662Z,9.77
2023-02-05T18:07:39.938Z,11.32
2023-02-05T18:10:07.080Z,14.70
2023-02-05T18:12:33.644Z,17.30
2023-02-05T18:15:00.195Z,15.00
2023-02-05T18:17:26.687Z,15.00
2023-02-05T18:19:53.282Z,16.23
2023-02-05T18:22:19.817Z,21.77
2023-02-05T18:24:46.326Z,20.20
2023-02-05T18:27:13.017Z,15.05
2023-02-05T18:29:39.572Z,18.00
2023-02-05T18:32:06.301Z,11.00
2023-02-05T18:34:32.830Z,12.15
2023-02-05T18:36:59.562Z,12.88
2023-02-05T18:39:29.486Z,8.45
2023-02-05T18:41:56.626Z,14.02
2023-02-05T18:44:23.685Z,11.52
2023-02-05T18:46:50.202Z,16.38
2023-02-05T18:49:16.698Z,12.73
2023-02-05T18:51:43.733Z,13.20
2023-02-05T18:54:10.315Z,15.85
2023-02-05T18:56:36.914Z,15.90
2023-02-05T18:59:06.201Z,20.30
2023-02-05T19:01:38.017Z,23.67
2023-02-05T19:04:09.664Z,18.95
2023-02-05T19:06:36.162Z,17.02
2023-02-05T19:09:03.392Z,21.35
2023-02-05T19:11:30.414Z,24.75
2023-02-05T19:13:57.805Z,20.90
2023-02-05T19:16:24.417Z,21.13
2023-02-05T19:18:50.920Z,21.02
2023-02-05T19:21:18.642Z,17.63
2023-02-05T19:23:45.673Z,20.38
2023-02-05T19:26:14.223Z,28.60
2023-02-05T19:28:41.065Z,24.05
2023-02-05T19:31:09.375Z,26.08
2023-02-05T19:33:36.197Z,22.30
2023-02-05T19:36:03.621Z,26.50
2023-02-05T19:38:30.222Z,17.23
2023-02-05T19:40:56.870Z,14.82
2023-02-05T19:43:23.349Z,15.77
2023-02-05T19:45:49.862Z,16.38
2023-02-05T19:48:16.689Z,16.50
2023-02-05T19:50:43.266Z,18.27
2023-02-05T19:53:10.336Z,16.00
2023-02-05T19:55:36.994Z,21.90
2023-02-05T19:58:03.679Z,16.83
2023-02-05T20:00:30.228Z,17.08
2023-02-05T20:02:56.713Z,13.23
2023-02-05T20:05:23.359Z,11.52
2023-02-05T20:07:50.633Z,7.40
2023-02-05T20:10:17.517Z,15.18
2023-02-05T20:12:44.035Z,15.10
2023-02-05T20:15:10.859Z,15.65
2023-02-05T20:17:37.438Z,17.55
2023-02-05T20:20:12.788Z,12.85
2023-02-05T20:22:42.445Z,9.38
2023-02-05T20:25:09.077Z,12.38
2023-02-05T20:27:35.561Z,11.48
2023-02-05T20:30:20.694Z,10.93
2023-02-05T20:32:47.242Z,13.48
2023-02-05T20:35:13.708Z,13.27
2023-02-05T20:37:40.226Z,14.75
2023-02-05T20:40:07.033Z,12.75
2023-02-05T20:42:33.583Z,11.00
2023-02-05T20:45:00.145Z,9.80
2023-02-05T20:47:26.651Z,13.35
2023-02-05T20:49:53.172Z,14.48
2023-02-05T20:52:19.697Z,10.55
2023-02-05T20:54:46.195Z,9.20
2023-02-05T20:57:12.792Z,16.45
2023-02-05T20:59:39.334Z,11.57
2023-02-05T21:02:06.025Z,14.60
2023-02-05T21:04:32.702Z,11.75
2023-02-05T21:06:59.258Z,13.23
2023-02-05T21:09:25.755Z,15.43
2023-02-05T21:11:55.439Z,18.00
2023-02-05T21:14:22.481Z,18.38
2023-02-05T21:16:49.012Z,13.05
2023-02-05T21:19:15.475Z,18.38
2023-02-05T21:21:42.015Z,13.15
2023-02-05T21:24:10.993Z,19.13
2023-02-05T21:26:39.005Z,17.15
2023-02-05T21:29:10.222Z,18.05
2023-02-05T21:31:39.344Z,19.50
2023-02-05T21:34:08.471Z,19.42
2023-02-05T21:36:35.011Z,22.67
2023-02-05T21:39:01.643Z,20.30
2023-02-05T21:41:28.100Z,22.85
2023-02-05T21:43:55.854Z,18.77
2023-02-05T21:46:22.768Z,16.45
2023-02-05T21:48:50.906Z,12.23
2023-02-05T21:51:18.313Z,13.88
2023-02-05T21:53:44.814Z,18.63
2023-02-05T21:56:12.922Z,11.85
2023-02-05T21:58:40.065Z,16.42
2023-02-05T22:01:13.154Z,17.38
2023-02-05T22:03:40.559Z,13.30
2023-02-05T22:06:07.677Z,16.83
2023-02-05T22:08:37.411Z,14.57
2023-02-05T22:11:05.060Z,12.07
2023-02-05T22:13:33.658Z,10.38
2023-02-05T22:16:04.687Z,14.90
2023-02-05T22:18:31.311Z,15.95
2023-02-05T22:20:57.802Z,14.27
2023-02-05T22:23:24.263Z,16.30
2023-02-05T22:25:50.814Z,11.00
2023-02-05T22:28:17.563Z,10.82
2023-02-05T22:30:44.102Z,10.57
2023-02-05T22:33:10.605Z,14.95
2023-02-05T22:35:37.591Z,13.25
2023-02-05T22:38:05.262Z,10.82
2023-02-05T22:40:31.829Z,9.75
2023-02-05T22:42:58.276Z,17.42
2023-02-05T22:45:24.759Z,13.05
2023-02-05T22:47:51.256Z,14.95
2023-02-05T22:50:17.785Z,16.05
2023-02-05T22:52:44.240Z,12.60
2023-02-05T22:55:10.742Z,13.48
2023-02-05T22:57:37.184Z,14.50
2023-02-05T23:00:04.267Z,16.67
2023-02-05T23:02:31.061Z,13.85
2023-02-05T23:04:57.582Z,12.13
2023-02-05T23:07:24.059Z,15.23
2023-02-05T23:09:50.615Z,11.48
2023-02-05T23:12:17.069Z,10.98
2023-02-05T23:14:43.561Z,13.45
2023-02-05T23:17:10.065Z,14.27
2023-02-05T23:19:36.539Z,16.27
2023-02-05T23:22:02.984Z,15.00
2023-02-05T23:24:29.463Z,14.38
2023-02-05T23:26:56.219Z,16.55
2023-02-05T23:29:22.977Z,23.70
2023-02-05T23:31:49.542Z,15.25
2023-02-05T23:34:16.085Z,13.70
2023-02-05T23:36:42.575Z,10.15
2023-02-05T23:39:09.114Z,12.43
2023-02-05T23:41:36.182Z,12.50
2023-02-05T23:44:16.054Z,16.38
2023-02-05T23:46:42.730Z,12.55
2023-02-05T23:49:09.345Z,14.90
2023-02-05T23:51:35.871Z,13.88
2023-02-05T23:54:02.391Z,13.25
2023-02-05T23:56:29.537Z,14.63
2023-02-05T23:58:56.163Z,12.35
